Time;durP1;ratioP1;P1;durP2;ratioP2;P2;SDS_P1;SDS_P2;PMS_P1;PMS_P2;Temp;Humidity;BMP_temperature;BMP_pressure;BME280_temperature;BME280_humidity;BME280_pressure;Samples;Min_cycle;Max_cycle;Signal;HPM_P1;HPM_P2
2022/10/07 00:00:38;;;;;;;3.53;1.10;;;22.70;99.90;;;;;;5061372;28;20385;-76
2022/10/07 00:03:09;;;;;;;5.05;1.45;;;22.80;99.90;;;;;;5062508;28;20200;-76
2022/10/07 00:05:40;;;;;;;6.72;1.60;;;22.80;99.90;;;;;;5064111;28;20305;-76
2022/10/07 00:08:13;;;;;;;5.88;1.80;;;22.80;99.90;;;;;;5061526;28;20302;-76
2022/10/07 00:10:44;;;;;;;6.50;1.90;;;22.70;99.90;;;;;;5062461;28;20698;-76
2022/10/07 00:13:15;;;;;;;6.25;1.77;;;22.60;99.90;;;;;;5062632;28;20231;-76
2022/10/07 00:15:46;;;;;;;9.35;5.30;;;22.60;99.90;;;;;;5064910;28;20199;-76
2022/10/07 00:18:16;;;;;;;6.55;2.20;;;22.70;99.90;;;;;;5063136;28;20926;-76
2022/10/07 00:20:48;;;;;;;8.65;2.13;;;22.70;99.90;;;;;;5062376;28;20611;-76
2022/10/07 00:23:21;;;;;;;13.40;2.15;;;22.60;99.90;;;;;;5064754;28;20196;-76
2022/10/07 00:25:51;;;;;;;11.65;2.40;;;22.60;99.90;;;;;;5062755;28;20203;-77
2022/10/07 00:28:25;;;;;;;12.23;2.00;;;22.50;99.90;;;;;;5064805;28;20191;-76
2022/10/07 00:31:00;;;;;;;5.15;1.98;;;22.50;99.90;;;;;;5063634;28;20223;-76
2022/10/07 00:33:33;;;;;;;7.50;2.17;;;22.40;99.90;;;;;;5061961;28;20191;-77
2022/10/07 00:36:08;;;;;;;9.00;2.72;;;22.40;99.90;;;;;;5063623;28;20187;-78
2022/10/07 00:38:41;;;;;;;9.68;2.63;;;22.40;99.90;;;;;;5061878;28;20195;-78
2022/10/07 00:41:21;;;;;;;8.38;2.17;;;22.30;99.90;;;;;;5064773;28;20203;-76
2022/10/07 00:43:53;;;;;;;8.50;2.22;;;22.30;99.90;;;;;;5066760;28;20553;-75
2022/10/07 00:46:31;;;;;;;10.10;2.35;;;22.40;99.90;;;;;;5066714;28;20207;-75
2022/10/07 00:49:04;;;;;;;12.48;2.10;;;22.50;99.90;;;;;;5063663;28;20219;-76
2022/10/07 00:51:37;;;;;;;9.40;2.30;;;22.50;99.90;;;;;;5062321;28;20231;-77
2022/10/07 00:54:13;;;;;;;10.75;2.50;;;22.60;99.90;;;;;;5067175;28;20665;-75
2022/10/07 00:56:45;;;;;;;12.30;2.60;;;22.70;99.90;;;;;;5065837;28;20206;-75
2022/10/07 00:59:18;;;;;;;8.85;2.38;;;22.70;99.90;;;;;;5065040;28;20222;-75
2022/10/07 01:01:49;;;;;;;11.75;2.58;;;22.70;99.90;;;;;;5061965;28;20195;-75
2022/10/07 01:04:20;;;;;;;9.40;2.72;;;22.80;99.90;;;;;;5069194;28;20199;-75
2022/10/07 01:06:51;;;;;;;12.60;2.30;;;22.90;99.90;;;;;;5068564;28;20676;-75
2022/10/07 01:09:24;;;;;;;8.05;2.47;;;22.90;99.90;;;;;;5065872;28;20191;-75
2022/10/07 01:12:01;;;;;;;10.15;2.50;;;22.90;99.90;;;;;;5065180;28;20785;-75
2022/10/07 01:14:51;;;;;;;5.07;1.92;;;22.90;99.90;;;;;;5063544;28;20231;-74
2022/10/07 01:17:27;;;;;;;5.53;1.98;;;22.90;99.90;;;;;;5061299;28;20218;-74
2022/10/07 01:20:17;;;;;;;6.45;2.20;;;23.00;99.90;;;;;;5060228;28;20666;-75
2022/10/07 01:22:58;;;;;;;6.97;1.73;;;23.00;99.90;;;;;;5062292;28;20207;-75
2022/10/07 01:25:44;;;;;;;8.20;1.80;;;22.90;99.90;;;;;;5066105;28;20195;-75
2022/10/07 01:28:20;;;;;;;6.55;1.73;;;22.80;99.90;;;;;;5064729;28;20206;-75
2022/10/07 01:30:56;;;;;;;7.13;1.92;;;22.80;99.90;;;;;;5063235;28;20234;-74
2022/10/07 01:33:29;;;;;;;7.78;1.98;;;22.90;99.90;;;;;;5062639;28;20201;-75
2022/10/07 01:36:04;;;;;;;7.65;1.55;;;22.80;99.90;;;;;;5060913;28;20206;-75
2022/10/07 01:38:37;;;;;;;8.63;2.17;;;22.80;99.90;;;;;;5063446;28;20203;-75
2022/10/07 01:41:11;;;;;;;9.02;2.40;;;22.80;99.90;;;;;;5065869;28;20199;-75
2022/10/07 01:43:45;;;;;;;6.97;2.00;;;22.70;99.90;;;;;;5062719;28;20741;-75
2022/10/07 01:46:19;;;;;;;13.90;2.95;;;22.60;99.90;;;;;;5063539;28;20195;-75
2022/10/07 01:48:50;;;;;;;9.82;2.45;;;22.50;99.90;;;;;;5064468;28;20207;-75
2022/10/07 01:51:23;;;;;;;8.95;2.53;;;22.50;99.90;;;;;;5060444;28;20842;-75
2022/10/07 01:54:02;;;;;;;9.80;2.83;;;22.40;99.90;;;;;;5062484;28;20206;-76
2022/10/07 01:56:48;;;;;;;12.43;2.80;;;22.30;99.90;;;;;;5062863;28;20692;-74
2022/10/07 01:59:37;;;;;;;14.77;3.30;;;22.20;99.90;;;;;;5062119;28;20215;-76
2022/10/07 02:02:17;;;;;;;10.85;2.50;;;22.00;99.90;;;;;;5061653;28;20203;-75
2022/10/07 02:04:58;;;;;;;5.65;1.98;;;22.10;99.90;;;;;;5061763;28;20203;-75
2022/10/07 02:07:38;;;;;;;10.23;2.78;;;22.00;99.90;;;;;;5060893;28;20201;-75
2022/10/07 02:10:18;;;;;;;8.90;2.10;;;22.00;99.90;;;;;;5063275;28;20199;-75
2022/10/07 02:12:55;;;;;;;5.35;2.00;;;22.00;99.90;;;;;;5061467;28;20240;-75
2022/10/07 02:15:33;;;;;;;10.80;2.33;;;22.00;99.90;;;;;;5061624;28;20229;-75
2022/10/07 02:18:11;;;;;;;10.25;2.25;;;21.90;99.90;;;;;;5063525;28;20348;-73
2022/10/07 02:20:43;;;;;;;9.60;2.40;;;21.90;99.90;;;;;;5059660;28;20252;-75
2022/10/07 02:23:16;;;;;;;8.48;2.33;;;21.70;99.90;;;;;;5061689;28;20709;-74
2022/10/07 02:25:49;;;;;;;10.07;2.20;;;21.70;99.90;;;;;;5060306;28;20223;-75
2022/10/07 02:28:22;;;;;;;10.68;2.30;;;21.60;99.90;;;;;;5063198;28;20215;-75
2022/10/07 02:30:58;;;;;;;10.30;2.38;;;21.60;99.90;;;;;;5059980;28;20199;-74
2022/10/07 02:33:30;;;;;;;5.35;1.75;;;21.60;99.90;;;;;;5060644;28;20294;-74
2022/10/07 02:36:04;;;;;;;12.35;2.33;;;21.50;99.90;;;;;;5058497;28;20230;-74
2022/10/07 02:38:35;;;;;;;7.63;1.73;;;21.60;99.90;;;;;;5057526;28;20196;-74
2022/10/07 02:41:30;;;;;;;6.35;1.80;;;21.70;99.90;;;;;;5056704;28;20218;-75
2022/10/07 02:44:06;;;;;;;5.00;1.40;;;21.60;99.90;;;;;;5056790;28;20302;-75
2022/10/07 02:46:44;;;;;;;4.88;1.52;;;21.60;99.90;;;;;;5055660;28;21750;-73
2022/10/07 02:49:16;;;;;;;7.18;1.85;;;21.60;99.90;;;;;;5057051;28;20195;-74
2022/10/07 02:51:51;;;;;;;7.18;2.17;;;21.70;99.90;;;;;;5056367;28;20238;-74
2022/10/07 02:54:27;;;;;;;3.47;1.58;;;21.70;99.90;;;;;;5061841;28;20195;-74
2022/10/07 02:57:02;;;;;;;5.57;1.60;;;21.70;99.90;;;;;;5056514;28;20234;-75
2022/10/07 02:59:36;;;;;;;7.47;1.85;;;21.60;99.90;;;;;;5057360;28;20708;-75
2022/10/07 03:02:12;;;;;;;6.28;1.60;;;21.60;99.90;;;;;;5057017;28;20204;-74
2022/10/07 03:04:46;;;;;;;5.13;1.65;;;21.60;99.90;;;;;;5057286;28;20214;-75
2022/10/07 03:07:17;;;;;;;5.20;1.60;;;21.50;99.90;;;;;;5055149;28;20204;-74
2022/10/07 03:09:49;;;;;;;8.18;1.80;;;21.50;99.90;;;;;;5058124;28;20218;-74
2022/10/07 03:12:19;;;;;;;7.22;1.92;;;21.50;99.90;;;;;;5058702;28;20223;-75
2022/10/07 03:14:50;;;;;;;7.20;1.67;;;21.40;99.90;;;;;;5063308;28;20200;-75
2022/10/07 03:17:23;;;;;;;3.80;1.58;;;21.40;99.90;;;;;;5060118;28;20245;-74
2022/10/07 03:19:54;;;;;;;7.38;1.85;;;21.30;99.90;;;;;;5066513;28;20946;-75
2022/10/07 03:22:24;;;;;;;5.55;1.60;;;21.30;99.90;;;;;;5060770;28;20674;-76
2022/10/07 03:25:04;;;;;;;7.10;2.67;;;21.30;99.90;;;;;;5065683;28;20943;-75
2022/10/07 03:27:34;;;;;;;5.93;1.40;;;21.30;99.90;;;;;;5067856;28;20701;-74
2022/10/07 03:30:05;;;;;;;4.88;1.58;;;21.10;99.90;;;;;;5064553;28;20576;-74
2022/10/07 03:32:40;;;;;;;5.43;1.60;;;21.10;99.90;;;;;;5062634;28;20227;-74
2022/10/07 03:35:11;;;;;;;6.95;1.73;;;21.10;99.90;;;;;;5061465;28;20305;-74
2022/10/07 03:37:42;;;;;;;4.28;1.40;;;21.20;99.90;;;;;;5062603;28;20231;-75
2022/10/07 03:40:13;;;;;;;3.38;1.40;;;21.10;99.90;;;;;;5068382;28;20233;-75
2022/10/07 03:42:44;;;;;;;5.72;1.65;;;21.10;99.90;;;;;;5066750;28;20196;-74
2022/10/07 03:45:15;;;;;;;6.03;1.45;;;21.00;99.90;;;;;;5066449;28;20205;-74
2022/10/07 03:47:48;;;;;;;4.53;1.48;;;21.00;99.90;;;;;;5060071;28;20195;-75
2022/10/07 03:50:19;;;;;;;6.45;1.90;;;21.00;99.90;;;;;;5056538;28;20251;-73
2022/10/07 03:52:49;;;;;;;4.35;1.63;;;20.90;99.90;;;;;;5063438;28;20266;-74
2022/10/07 03:55:21;;;;;;;6.78;1.92;;;20.90;99.90;;;;;;5062685;28;20195;-74
2022/10/07 03:57:52;;;;;;;5.90;2.05;;;20.90;99.90;;;;;;5067343;28;20203;-75
2022/10/07 04:00:24;;;;;;;7.10;1.63;;;20.80;99.90;;;;;;5064977;28;20576;-75
2022/10/07 04:02:57;;;;;;;7.53;1.83;;;20.80;99.90;;;;;;5061470;28;20222;-75
2022/10/07 04:05:28;;;;;;;5.82;1.85;;;20.80;99.90;;;;;;5061296;28;20694;-74
2022/10/07 04:07:58;;;;;;;5.72;1.67;;;20.80;99.90;;;;;;5064989;28;20667;-74
2022/10/07 04:10:31;;;;;;;7.13;1.95;;;20.70;99.90;;;;;;5064230;28;20198;-74
2022/10/07 04:13:02;;;;;;;7.95;2.28;;;20.70;99.90;;;;;;5063086;28;20238;-74
2022/10/07 04:15:33;;;;;;;5.63;1.80;;;20.60;99.90;;;;;;5061083;28;20310;-75
2022/10/07 04:18:06;;;;;;;4.85;1.73;;;20.60;99.90;;;;;;5064753;28;20206;-75
2022/10/07 04:20:38;;;;;;;6.05;1.85;;;20.60;99.90;;;;;;5059106;28;20639;-76
2022/10/07 04:23:09;;;;;;;5.22;1.70;;;20.50;99.90;;;;;;5061523;28;20673;-75
2022/10/07 04:25:45;;;;;;;8.07;1.60;;;20.50;99.90;;;;;;5066810;28;20192;-75
2022/10/07 04:28:20;;;;;;;10.00;2.08;;;20.50;99.90;;;;;;5061630;28;20212;-75
2022/10/07 04:30:52;;;;;;;6.10;2.13;;;20.50;99.90;;;;;;5060645;28;20205;-75
2022/10/07 04:33:26;;;;;;;7.68;3.28;;;20.40;99.90;;;;;;5062050;28;20232;-75
2022/10/07 04:35:57;;;;;;;7.13;2.05;;;20.40;99.90;;;;;;5062307;28;20202;-75
2022/10/07 04:38:27;;;;;;;5.38;2.10;;;20.40;99.90;;;;;;5062449;28;21454;-75
2022/10/07 04:40:58;;;;;;;8.23;2.08;;;20.30;99.90;;;;;;5064107;28;20199;-74
2022/10/07 04:43:32;;;;;;;8.98;2.22;;;20.30;99.90;;;;;;5064600;28;20195;-73
2022/10/07 04:46:07;;;;;;;9.30;2.00;;;20.40;99.90;;;;;;5067742;28;20195;-74
2022/10/07 04:48:40;;;;;;;6.13;2.28;;;20.30;99.90;;;;;;5066116;28;20276;-75
2022/10/07 04:51:12;;;;;;;5.38;1.48;;;20.30;99.90;;;;;;5065093;28;20210;-73
2022/10/07 04:53:43;;;;;;;4.45;1.40;;;20.30;99.90;;;;;;5068460;28;20269;-73
2022/10/07 04:56:14;;;;;;;3.03;1.20;;;20.20;99.90;;;;;;5064127;28;20259;-73
2022/10/07 04:58:45;;;;;;;3.78;1.48;;;20.20;99.90;;;;;;5061106;28;22387;-73
2022/10/07 05:01:15;;;;;;;2.22;1.27;;;20.20;99.90;;;;;;5060254;28;20203;-73
2022/10/07 05:03:49;;;;;;;2.78;1.35;;;20.20;99.90;;;;;;5063242;28;20199;-73
2022/10/07 05:06:20;;;;;;;3.60;1.17;;;20.20;99.90;;;;;;5059931;28;20202;-73
2022/10/07 05:08:51;;;;;;;1.95;1.23;;;20.10;99.90;;;;;;5063709;28;20221;-73
2022/10/07 05:11:22;;;;;;;2.05;1.23;;;20.10;99.90;;;;;;5058141;28;20678;-72
2022/10/07 05:13:53;;;;;;;2.70;1.30;;;20.10;99.90;;;;;;5060430;28;20721;-74
2022/10/07 05:16:24;;;;;;;1.55;1.10;;;20.00;99.90;;;;;;5060375;28;21028;-74
2022/10/07 05:18:56;;;;;;;4.45;1.85;;;19.90;99.90;;;;;;5062202;28;20207;-74
2022/10/07 05:21:29;;;;;;;3.92;1.60;;;19.90;99.90;;;;;;5059352;28;20206;-74
2022/10/07 05:24:00;;;;;;;2.78;1.25;;;19.90;99.90;;;;;;5066514;28;20291;-74
2022/10/07 05:26:32;;;;;;;2.17;1.30;;;19.80;99.90;;;;;;5060560;28;20199;-74
2022/10/07 05:29:03;;;;;;;2.10;1.20;;;19.80;99.90;;;;;;5065244;28;20195;-77
2022/10/07 05:31:34;;;;;;;4.82;1.33;;;19.80;99.90;;;;;;5059124;28;20322;-74
2022/10/07 05:34:07;;;;;;;3.08;1.30;;;19.80;99.90;;;;;;5062397;28;20832;-74
2022/10/07 05:36:39;;;;;;;2.95;1.23;;;19.70;99.90;;;;;;5059361;28;20666;-75
2022/10/07 05:39:10;;;;;;;1.13;1.02;;;19.70;99.90;;;;;;5065883;28;20200;-72
2022/10/07 05:41:42;;;;;;;3.85;1.30;;;19.70;99.90;;;;;;5063397;28;20206;-72
2022/10/07 05:44:13;;;;;;;4.22;1.48;;;19.60;99.90;;;;;;5061938;28;20207;-73
2022/10/07 05:46:45;;;;;;;5.65;1.52;;;19.60;99.90;;;;;;5059141;28;20200;-73
2022/10/07 05:49:19;;;;;;;2.80;1.20;;;19.60;99.90;;;;;;5059139;28;20192;-74
2022/10/07 05:51:53;;;;;;;4.22;1.38;;;19.60;99.90;;;;;;5059946;28;20314;-74
2022/10/07 05:54:24;;;;;;;2.25;1.50;;;19.60;99.90;;;;;;5060268;28;20215;-73
2022/10/07 05:56:55;;;;;;;2.05;1.30;;;19.60;99.90;;;;;;5059024;28;20304;-72
2022/10/07 05:59:27;;;;;;;2.42;1.30;;;19.50;99.90;;;;;;5058805;28;20312;-73
2022/10/07 06:02:00;;;;;;;1.80;1.60;;;19.50;99.90;;;;;;5055476;28;20571;-73
2022/10/07 06:04:34;;;;;;;3.20;1.60;;;19.50;99.90;;;;;;5060142;28;20194;-72
2022/10/07 06:07:05;;;;;;;1.60;1.25;;;19.50;99.90;;;;;;5059171;28;20206;-73
2022/10/07 06:15:12;;;;;;;2.28;1.38;;;19.40;99.90;;;;;;5062882;28;20214;-73
2022/10/07 06:17:47;;;;;;;5.93;1.60;;;19.40;99.90;;;;;;5057508;28;20195;-72
2022/10/07 06:20:20;;;;;;;2.17;1.40;;;19.50;99.90;;;;;;5057848;28;20930;-73
2022/10/07 06:22:51;;;;;;;5.47;4.07;;;19.40;99.90;;;;;;5058251;28;20206;-75
2022/10/07 06:25:22;;;;;;;4.68;3.13;;;19.40;99.90;;;;;;5068146;28;20199;-74
2022/10/07 06:27:56;;;;;;;3.22;2.10;;;19.40;99.90;;;;;;5063117;28;20214;-75
2022/10/07 06:30:28;;;;;;;3.15;2.00;;;19.40;99.90;;;;;;5059929;28;20214;-75
2022/10/07 06:32:59;;;;;;;3.08;1.65;;;19.40;99.90;;;;;;5058777;28;20223;-75
2022/10/07 06:35:32;;;;;;;1.65;1.55;;;19.40;99.90;;;;;;5058896;28;20397;-74
2022/10/07 06:38:03;;;;;;;2.70;1.70;;;19.30;99.90;;;;;;5084584;28;20290;-75
2022/10/07 06:40:37;;;;;;;2.30;1.60;;;19.30;99.90;;;;;;5086261;28;20202;-75
2022/10/07 06:43:08;;;;;;;2.53;1.55;;;19.30;99.90;;;;;;5087046;28;20625;-74
2022/10/07 06:45:41;;;;;;;2.35;1.42;;;19.30;99.90;;;;;;5085929;28;20203;-75
2022/10/07 06:48:13;;;;;;;4.35;2.25;;;19.30;99.90;;;;;;5087009;28;20191;-75
2022/10/07 06:50:54;;;;;;;4.20;1.80;;;19.30;99.90;;;;;;5086657;28;20202;-74
2022/10/07 06:53:25;;;;;;;4.88;2.10;;;19.30;99.90;;;;;;5059146;28;20619;-74
2022/10/07 06:55:56;;;;;;;3.10;1.88;;;19.30;99.90;;;;;;5061304;28;20768;-75
2022/10/07 06:58:27;;;;;;;1.75;1.40;;;19.30;99.90;;;;;;5057739;28;20200;-74
2022/10/07 07:01:03;;;;;;;2.83;1.60;;;19.20;99.90;;;;;;5058096;28;20199;-74
2022/10/07 07:03:34;;;;;;;3.47;2.20;;;19.20;99.90;;;;;;5056288;28;21271;-74
2022/10/07 07:06:07;;;;;;;2.75;1.50;;;19.20;99.90;;;;;;5056897;28;20203;-74
2022/10/07 07:08:40;;;;;;;3.47;1.85;;;19.10;99.90;;;;;;5058388;28;20959;-75
2022/10/07 07:14:01;;;;;;;3.58;1.70;;;19.00;99.90;;;;;;5055632;28;20270;-74
2022/10/07 07:16:32;;;;;;;2.25;1.38;;;19.00;99.90;;;;;;5058952;28;20199;-74
2022/10/07 07:19:05;;;;;;;3.83;1.40;;;19.00;99.90;;;;;;5055933;28;20430;-75
2022/10/07 07:21:39;;;;;;;3.67;1.67;;;19.00;99.90;;;;;;5058446;28;20191;-73
2022/10/07 07:24:11;;;;;;;1.60;1.50;;;19.00;99.90;;;;;;5066237;28;20207;-75
2022/10/07 07:26:42;;;;;;;2.72;1.85;;;19.00;99.90;;;;;;5060018;28;20270;-74
2022/10/07 07:29:17;;;;;;;2.28;2.00;;;18.90;99.90;;;;;;5055010;28;20196;-74
2022/10/07 07:31:52;;;;;;;4.30;2.50;;;18.90;99.90;;;;;;5057384;28;21083;-75
2022/10/07 07:34:28;;;;;;;4.63;1.95;;;18.90;99.90;;;;;;5056231;28;21499;-74
2022/10/07 07:37:01;;;;;;;5.15;2.30;;;18.90;99.90;;;;;;5057804;28;20191;-74
2022/10/07 07:39:35;;;;;;;1.90;1.80;;;18.90;99.90;;;;;;5059323;28;20200;-74
2022/10/07 07:42:06;;;;;;;2.85;1.60;;;18.90;99.90;;;;;;5057149;28;20207;-74
2022/10/07 07:44:39;;;;;;;1.80;1.50;;;18.90;99.90;;;;;;5056763;28;20207;-74
2022/10/07 07:47:10;;;;;;;4.32;1.70;;;18.90;99.90;;;;;;5058208;28;20211;-73
2022/10/07 07:49:42;;;;;;;3.72;1.50;;;18.90;99.90;;;;;;5055284;28;20570;-74
2022/10/07 07:52:17;;;;;;;3.85;1.90;;;18.90;99.90;;;;;;5053881;28;20215;-73
2022/10/07 07:54:58;;;;;;;1.73;1.60;;;18.90;99.90;;;;;;5057017;28;20228;-73
2022/10/07 07:57:31;;;;;;;2.63;1.60;;;18.90;99.90;;;;;;5054702;28;20208;-73
2022/10/07 08:00:02;;;;;;;2.47;1.95;;;18.80;99.90;;;;;;5051997;28;20229;-74
2022/10/07 08:02:35;;;;;;;2.33;2.03;;;18.80;99.90;;;;;;5055895;28;20662;-74
2022/10/07 08:05:06;;;;;;;4.10;2.30;;;18.80;99.90;;;;;;5054861;28;20223;-72
2022/10/07 08:07:39;;;;;;;3.65;2.25;;;18.80;99.90;;;;;;5069194;28;20191;-74
2022/10/07 08:10:11;;;;;;;2.00;1.80;;;18.80;99.90;;;;;;5084157;28;20205;-74
2022/10/07 08:12:42;;;;;;;3.47;1.80;;;18.80;99.90;;;;;;5083698;28;20234;-73
2022/10/07 08:15:14;;;;;;;2.55;1.70;;;18.80;99.90;;;;;;5076624;28;20218;-73
2022/10/07 08:17:45;;;;;;;2.10;1.70;;;18.80;99.90;;;;;;5060079;28;20199;-73
2022/10/07 08:20:16;;;;;;;1.88;1.73;;;18.90;99.90;;;;;;5055356;28;20202;-74
2022/10/07 08:22:49;;;;;;;2.30;2.10;;;18.80;99.90;;;;;;5055460;28;20674;-73
2022/10/07 08:25:21;;;;;;;7.57;2.75;;;18.80;99.90;;;;;;5071065;28;20625;-73
2022/10/07 08:27:52;;;;;;;3.08;2.03;;;18.80;99.90;;;;;;5063291;28;20203;-73
2022/10/07 08:30:23;;;;;;;5.10;2.53;;;18.80;99.90;;;;;;5065845;28;20228;-73
2022/10/07 08:32:54;;;;;;;3.03;2.72;;;18.80;99.90;;;;;;5059561;28;20208;-74
2022/10/07 08:35:25;;;;;;;5.00;2.20;;;18.80;99.90;;;;;;5059837;28;20200;-74
2022/10/07 08:37:58;;;;;;;4.35;2.50;;;18.80;99.90;;;;;;5061380;28;20196;-74
2022/10/07 08:40:30;;;;;;;2.83;2.20;;;18.80;99.90;;;;;;5063921;28;20200;-74
2022/10/07 08:43:01;;;;;;;2.88;1.88;;;18.80;99.90;;;;;;5062317;28;20196;-74
2022/10/07 08:45:34;;;;;;;2.67;1.83;;;18.80;99.90;;;;;;5060872;28;20245;-75
2022/10/07 08:48:12;;;;;;;3.38;1.95;;;18.80;99.90;;;;;;5060042;28;20206;-74
2022/10/07 08:50:51;;;;;;;3.58;1.90;;;18.80;99.90;;;;;;5058409;28;20323;-74
2022/10/07 08:53:32;;;;;;;3.25;1.90;;;18.70;99.90;;;;;;5060363;28;20284;-75
2022/10/07 08:56:11;;;;;;;3.95;1.70;;;18.70;99.90;;;;;;5068468;28;21012;-74
2022/10/07 08:59:01;;;;;;;2.83;1.75;;;18.70;99.90;;;;;;5083561;28;20213;-75
2022/10/07 09:01:47;;;;;;;2.03;1.60;;;18.70;99.90;;;;;;5095734;28;20221;-75
2022/10/07 09:04:36;;;;;;;2.38;1.75;;;18.70;99.90;;;;;;5073345;28;20210;-74
2022/10/07 09:07:22;;;;;;;3.00;1.90;;;18.70;99.90;;;;;;5072180;28;20227;-74
2022/10/07 09:10:04;;;;;;;4.45;2.53;;;18.70;99.90;;;;;;5071981;28;20199;-75
2022/10/07 09:12:45;;;;;;;6.72;2.53;;;18.70;99.90;;;;;;5054184;28;20322;-74
2022/10/07 09:18:16;;;;;;;4.15;2.30;;;18.70;99.90;;;;;;5069743;28;20568;-75
2022/10/07 09:20:52;;;;;;;2.42;1.80;;;18.70;99.90;;;;;;5072794;28;20199;-75
2022/10/07 09:23:25;;;;;;;2.75;1.83;;;18.70;99.90;;;;;;5079208;28;20194;-75
2022/10/07 09:26:03;;;;;;;7.10;2.33;;;18.60;99.90;;;;;;5073125;28;20207;-73
2022/10/07 09:28:35;;;;;;;5.20;2.40;;;18.60;99.90;;;;;;5081432;28;20202;-74
2022/10/07 09:31:07;;;;;;;2.60;1.77;;;18.70;99.90;;;;;;5078663;28;20178;-75
2022/10/07 09:33:43;;;;;;;1.60;1.50;;;18.70;99.90;;;;;;5074135;28;20809;-74
2022/10/07 09:36:20;;;;;;;2.20;1.60;;;18.60;99.90;;;;;;5073462;28;20221;-74
2022/10/07 09:38:53;;;;;;;2.67;2.13;;;18.70;99.90;;;;;;5078755;28;21366;-74
2022/10/07 09:41:31;;;;;;;3.13;2.42;;;18.60;99.90;;;;;;5075527;28;20204;-75
2022/10/07 09:44:22;;;;;;;3.00;1.83;;;18.60;99.90;;;;;;5073160;28;20203;-74
2022/10/07 09:46:56;;;;;;;3.13;2.22;;;18.70;99.90;;;;;;5073017;28;20635;-75
2022/10/07 09:49:50;;;;;;;3.25;2.10;;;18.60;99.90;;;;;;5057538;28;20683;-75
2022/10/07 09:52:23;;;;;;;2.58;1.60;;;18.60;99.90;;;;;;5074378;28;20733;-75
2022/10/07 09:54:56;;;;;;;6.78;1.98;;;18.60;99.90;;;;;;5076931;28;20560;-75
2022/10/07 09:57:34;;;;;;;2.55;1.75;;;18.60;99.90;;;;;;5070275;28;20195;-74
2022/10/07 10:00:25;;;;;;;2.55;1.80;;;18.60;99.90;;;;;;5074893;28;20222;-74
2022/10/07 10:02:59;;;;;;;3.22;1.83;;;18.60;99.90;;;;;;5069587;28;20192;-75
2022/10/07 10:05:32;;;;;;;1.95;1.70;;;18.60;99.90;;;;;;5069236;28;20644;-74
2022/10/07 10:08:12;;;;;;;2.53;2.00;;;18.60;99.90;;;;;;5074099;28;20194;-74
2022/10/07 10:10:53;;;;;;;2.75;2.20;;;18.60;99.90;;;;;;5070620;28;20187;-74
2022/10/07 10:13:34;;;;;;;3.53;2.40;;;18.60;99.90;;;;;;5074943;28;20227;-75
2022/10/07 10:16:07;;;;;;;3.05;2.22;;;18.60;99.90;;;;;;5063637;28;20282;-75
2022/10/07 10:18:50;;;;;;;2.40;2.20;;;18.60;99.90;;;;;;5069255;28;20199;-75
2022/10/07 10:21:39;;;;;;;2.28;2.00;;;18.60;99.90;;;;;;5094788;28;20260;-72
2022/10/07 10:24:14;;;;;;;2.17;1.95;;;18.60;99.90;;;;;;5076879;28;20206;-74
2022/10/07 10:27:00;;;;;;;3.55;2.00;;;18.60;99.90;;;;;;5077783;28;20195;-75
2022/10/07 10:29:46;;;;;;;3.60;2.20;;;18.60;99.90;;;;;;5074551;28;20660;-75
2022/10/07 10:33:03;;;;;;;2.53;2.08;;;18.60;99.90;;;;;;5076144;28;20195;-76
2022/10/07 10:35:42;;;;;;;2.40;2.17;;;18.60;99.90;;;;;;5073387;28;20226;-75
2022/10/07 10:38:27;;;;;;;1.90;1.80;;;18.70;99.90;;;;;;5072455;28;20199;-74
2022/10/07 10:41:05;;;;;;;2.47;1.90;;;18.60;99.90;;;;;;5074790;28;20202;-72
2022/10/07 10:43:49;;;;;;;2.85;1.85;;;18.60;99.90;;;;;;5073570;28;20178;-73
2022/10/07 10:46:48;;;;;;;3.45;2.10;;;18.60;99.90;;;;;;5072235;28;20201;-74
2022/10/07 10:49:32;;;;;;;2.03;1.80;;;18.60;99.90;;;;;;5076996;28;20294;-74
2022/10/07 10:52:35;;;;;;;2.00;1.80;;;18.60;99.90;;;;;;5076174;28;20663;-74
2022/10/07 10:55:43;;;;;;;3.08;2.00;;;18.60;99.90;;;;;;5079129;28;20341;-74
2022/10/07 10:58:28;;;;;;;2.15;1.85;;;18.70;99.90;;;;;;5071019;28;20246;-74
2022/10/07 11:01:07;;;;;;;2.45;1.60;;;18.60;99.90;;;;;;5072807;28;20245;-74
2022/10/07 11:04:04;;;;;;;3.35;1.95;;;18.60;99.90;;;;;;5073948;28;20819;-74
2022/10/07 11:06:37;;;;;;;1.80;1.70;;;18.70;99.90;;;;;;5071340;28;20199;-75
2022/10/07 11:09:13;;;;;;;3.10;2.10;;;18.70;99.90;;;;;;5076054;28;20191;-72
2022/10/07 11:11:45;;;;;;;2.85;1.60;;;18.70;99.90;;;;;;5050395;28;20690;-74
2022/10/07 11:14:22;;;;;;;2.38;1.88;;;18.70;99.90;;;;;;5071197;28;20330;-74
2022/10/07 11:16:57;;;;;;;1.70;1.60;;;18.70;99.90;;;;;;5076542;28;20199;-74
2022/10/07 11:19:37;;;;;;;2.05;1.50;;;18.60;99.90;;;;;;5056964;28;20195;-74
2022/10/07 11:22:17;;;;;;;1.80;1.70;;;18.60;99.90;;;;;;5078908;28;20729;-74
2022/10/07 11:24:53;;;;;;;2.42;1.58;;;18.70;99.90;;;;;;5066626;28;20926;-74
2022/10/07 11:27:48;;;;;;;1.60;1.50;;;18.60;99.90;;;;;;5083123;28;20249;-73
2022/10/07 11:30:21;;;;;;;1.80;1.52;;;18.70;99.90;;;;;;5088687;28;20232;-74
2022/10/07 11:33:00;;;;;;;1.65;1.52;;;18.70;99.90;;;;;;5077260;28;20199;-74
2022/10/07 11:35:39;;;;;;;3.20;1.50;;;18.70;99.90;;;;;;5073270;28;20223;-76
2022/10/07 11:38:24;;;;;;;1.52;1.42;;;18.70;99.90;;;;;;5077409;28;20197;-75
2022/10/07 11:40:58;;;;;;;1.83;1.50;;;18.70;99.90;;;;;;5088185;28;20190;-76
2022/10/07 11:43:39;;;;;;;1.38;1.27;;;18.70;99.90;;;;;;5077642;28;20199;-76
2022/10/07 11:46:17;;;;;;;1.88;1.60;;;18.70;99.90;;;;;;5072633;28;20762;-76
2022/10/07 11:48:50;;;;;;;1.52;1.42;;;18.70;99.90;;;;;;5080016;28;20189;-76
2022/10/07 11:51:35;;;;;;;2.67;1.45;;;18.70;99.90;;;;;;5073205;28;20191;-77
2022/10/07 11:54:10;;;;;;;1.30;1.20;;;18.70;99.90;;;;;;5077903;28;20633;-76
2022/10/07 11:56:49;;;;;;;3.22;1.60;;;18.70;99.90;;;;;;5078112;28;20327;-75
2022/10/07 11:59:41;;;;;;;1.52;1.40;;;18.70;99.90;;;;;;5081397;28;20205;-76
2022/10/07 12:02:50;;;;;;;1.50;1.40;;;18.70;99.90;;;;;;5084341;28;20199;-76
2022/10/07 12:06:14;;;;;;;1.50;1.30;;;18.70;99.90;;;;;;5082489;28;20191;-77
2022/10/07 12:08:52;;;;;;;1.33;1.20;;;18.70;99.90;;;;;;5085061;28;22528;-77
2022/10/07 12:11:48;;;;;;;1.40;1.30;;;18.60;99.90;;;;;;5066062;28;20641;-77
2022/10/07 12:14:59;;;;;;;1.90;1.63;;;18.70;99.90;;;;;;5086529;28;20227;-75
2022/10/07 12:17:34;;;;;;;1.95;1.35;;;18.70;99.90;;;;;;5082982;28;20203;-75
2022/10/07 12:20:55;;;;;;;1.30;1.20;;;18.70;99.90;;;;;;5085638;28;21425;-76
2022/10/07 12:23:50;;;;;;;2.53;1.30;;;18.60;99.90;;;;;;5089179;28;20251;-76
2022/10/07 12:26:59;;;;;;;1.48;1.38;;;18.70;99.90;;;;;;5079217;28;20199;-76
2022/10/07 12:29:57;;;;;;;1.90;1.20;;;18.70;99.90;;;;;;5078022;28;20191;-76
2022/10/07 12:33:01;;;;;;;1.20;1.13;;;18.70;99.90;;;;;;5080963;28;20199;-76
2022/10/07 12:35:51;;;;;;;1.33;1.13;;;18.60;99.90;;;;;;5061517;28;20222;-76
2022/10/07 12:38:43;;;;;;;1.27;1.17;;;18.70;99.90;;;;;;5058707;28;20200;-77
2022/10/07 12:41:32;;;;;;;1.05;1.00;;;18.70;99.90;;;;;;5060008;28;22317;-76
2022/10/07 12:44:17;;;;;;;1.38;0.95;;;18.70;99.90;;;;;;5058356;28;20196;-76
2022/10/07 12:46:53;;;;;;;2.45;1.20;;;18.70;99.90;;;;;;5056962;28;20199;-76
2022/10/07 12:49:35;;;;;;;2.13;1.13;;;18.70;99.90;;;;;;5061409;28;20203;-77
2022/10/07 12:55:02;;;;;;;1.10;1.00;;;18.70;99.90;;;;;;5060134;28;20689;-76
2022/10/07 12:57:48;;;;;;;1.20;1.10;;;18.70;99.90;;;;;;5060989;28;20195;-77
2022/10/07 13:00:26;;;;;;;2.95;1.05;;;18.70;99.90;;;;;;5064450;28;20223;-77
2022/10/07 13:03:28;;;;;;;0.80;0.80;;;18.70;99.90;;;;;;5060200;28;20229;-77
2022/10/07 13:10:15;;;;;;;1.35;0.90;;;18.70;99.90;;;;;;5061367;28;20672;-76
2022/10/07 13:12:53;;;;;;;1.00;0.90;;;18.70;99.90;;;;;;5043340;28;20280;-78
2022/10/07 13:15:42;;;;;;;1.15;0.90;;;18.80;99.90;;;;;;5069182;28;20470;-76
2022/10/07 13:18:27;;;;;;;0.90;0.90;;;18.80;99.90;;;;;;5047422;28;20324;-76
2022/10/07 13:21:19;;;;;;;0.95;0.85;;;18.80;99.90;;;;;;5042804;28;20258;-75
2022/10/07 13:24:04;;;;;;;0.88;0.88;;;18.80;99.90;;;;;;5042390;28;20282;-76
2022/10/07 13:26:37;;;;;;;1.13;0.70;;;18.80;99.90;;;;;;5058350;28;20211;-77
2022/10/07 13:29:27;;;;;;;0.90;0.90;;;18.80;99.90;;;;;;5042858;28;20195;-77
2022/10/07 13:32:19;;;;;;;0.88;0.80;;;18.80;99.90;;;;;;5055870;28;20473;-77
2022/10/07 13:34:50;;;;;;;1.25;0.80;;;18.80;99.90;;;;;;5059073;28;20262;-76
2022/10/07 13:37:32;;;;;;;1.30;0.82;;;18.90;99.90;;;;;;5056715;28;20336;-76
2022/10/07 13:40:22;;;;;;;0.80;0.80;;;18.80;99.90;;;;;;5065139;28;21511;-76
2022/10/07 13:42:57;;;;;;;1.02;0.93;;;18.90;99.90;;;;;;5063072;28;20203;-77
2022/10/07 13:45:29;;;;;;;0.63;0.63;;;18.90;99.90;;;;;;5060335;28;20322;-76
2022/10/07 13:48:02;;;;;;;0.88;0.88;;;18.90;99.90;;;;;;5058577;28;20204;-77
2022/10/07 13:50:36;;;;;;;1.05;1.05;;;18.90;99.90;;;;;;5058714;28;21093;-77
2022/10/07 13:53:07;;;;;;;1.23;1.08;;;18.90;99.90;;;;;;5057880;28;20426;-76